Vera Y Pintado, Argentina
Current Conditions -  °F | °C
As of 8:00 PM on Saturday 20 Dec 2014 (Local Time) from SUSO Reporting Station
Thunderstorm Thunderstorm  
Wind Chill: 19°   Ceiling: Unl
Heat Index: 19°   Visibility: 6mi
Dew Point: 19°   Wind: 0mph
Humidity: 100%   Direction: NA
Pressure: 29.47"   Gusts: NA
Location:  30.15°S, 60.32°W
Report Text: SUSO 202300Z 00000KT 9999 TS SCT013 FEW040CB 19/19 Q0998
Loading
Personal Weather Stations






























Interactive Weather Map New forecast layout! Learn more

10-Day Weather Forecast

Advertisements
Track Severe Weather on mobile